Flight Track Log - Related Links

Times and Time Zones

All times are in EST time to prevent confusion due to time zone crossing. See the SWA1125 flight status page for this flight to view local times or setup timezone preferences in your user account.

Time Position Orientation Groundspeed Altitude Reporting Facility
EST Latitude Longitude Course Direction KTS MPH feet Rate Location/Type
Sat 08:12:44 PM 29.6264 -95.2589 84° East 177 204 1,000  Level Houston Center
Sat 08:13:21 PM 29.6069 -95.2300 128° Southeast 185 213 2,200 2,188 Climbing Houston Center
Sat 08:14:09 PM 29.5775 -95.1869 128° Southeast 208 239 4,100 2,557 Climbing Houston Center
Sat 08:14:22 PM 29.5656 -95.1703 129° Southeast 239 275 4,800 2,361 Climbing Houston Center
Sat 08:15:10 PM 29.5594 -95.1108 97° East 269 310 6,500 2,367 Climbing Houston Center
Sat 08:16:11 PM 29.5894 -95.0278 67° East 289 333 9,100 2,098 Climbing Houston Center
Sat 08:17:13 PM 29.6239 -94.9353 67° East 318 366 10,800 1,805 Climbing Houston Center
Sat 08:18:00 PM 29.5787 -94.4942 84° East  Level Estimated
Sat 08:18:14 PM 29.6658 -94.8222 67° East 382 440 12,800  Level Houston Center
Sat 08:19:16 PM 29.7094 -94.6794 71° East 395 455 15,900 2,390 Climbing Houston Center
Sat 08:20:17 PM 29.7142 -94.5486 88° East 409 471 17,700 2,146 Climbing Houston Center
Sat 08:21:19 PM 29.7192 -94.4131 88° East 423 487 20,300 1,951 Climbing Houston Center
Sat 08:22:20 PM 29.7150 -94.2781 92° East 425 489 21,700 1,561 Climbing Houston Center
Sat 08:23:22 PM 29.7031 -94.1428 96° East 437 503 23,500 1,854 Climbing Houston Center
Sat 08:24:23 PM 29.7031 -94.0028 90° East 442 509 25,500 1,659 Climbing Houston Center
Sat 08:25:25 PM 29.7000 -93.8361 91° East 438 504 26,900 1,512 Climbing Houston Center
Sat 08:26:26 PM 29.6969 -93.6897 91° East 455 524 28,600 1,180 Climbing Houston Center
Sat 08:27:27 PM 29.6947 -93.5450 91° East 457 526 29,300 1,073 Climbing Houston Center
Sat 08:28:29 PM 29.6900 -93.3967 92° East 464 534 30,800 1,024 Climbing Houston Center
Sat 08:29:30 PM 29.6875 -93.2464 91° East 471 542 31,400 1,073 Climbing Houston Center
Sat 08:30:32 PM 29.6833 -93.0956 92° East 474 545 33,000 1,317 Climbing Houston Center
Sat 08:31:33 PM 29.6794 -92.9453 92° East 473 544 34,100 984 Climbing Houston Center
Sat 08:32:34 PM 29.6753 -92.7669 91° East 470 541 35,000 439 Climbing Houston Center
Sat 08:33:36 PM 29.6700 -92.6183 92° East 468 539 35,000  Level Houston Center
Sat 08:34:37 PM 29.6661 -92.4686 92° East 469 540 35,000  Level Houston Center
Sat 08:35:39 PM 29.6531 -92.3194 96° East 469 540 35,000  Level Houston Center
Sat 08:36:40 PM 29.6225 -92.1797 104° East 454 522 35,000  Level Houston Center
Sat 08:37:41 PM 29.5936 -92.0394 103° East 453 521 35,000  Level Houston Center
Sat 08:38:43 PM 29.5650 -91.8975 103° East 456 525 35,000  Level Houston Center
Sat 08:39:44 PM 29.5356 -91.7575 104° East 454 522 35,000  Level Houston Center
Sat 08:40:46 PM 29.5064 -91.6119 103° East 453 521 35,000  Level Houston Center
Sat 08:41:47 PM 29.4758 -91.4736 104° East 451 519 35,000  Level Houston Center
Sat 08:42:49 PM 29.4411 -91.3067 103° East 450 518 35,000  Level Houston Center
Sat 08:43:50 PM 29.4100 -91.1700 105° East 447 514 35,000  Level Houston Center
Sat 08:44:52 PM 29.3808 -91.0336 104° East 443 510 35,000  Level Houston Center
Sat 08:45:53 PM 29.3514 -90.8992 104° East 439 505 35,000  Level Houston Center
Sat 08:46:54 PM 29.3219 -90.7633 104° East 440 506 35,000  Level Houston Center
Sat 08:47:56 PM 29.2917 -90.6256 104° East 446 513 35,000  Level Houston Center
Sat 08:48:57 PM 29.2622 -90.4900 104° East 444 511 35,000  Level Houston Center
Sat 08:49:59 PM 29.2258 -90.3247 104° East 445 512 35,000  Level Houston Center
Sat 08:51:00 PM 29.1936 -90.1861 105° East 449 517 35,000  Level Houston Center
Sat 08:52:01 PM 29.1631 -90.0483 104° East 450 518 35,000  Level Houston Center
Sat 08:53:03 PM 29.1358 -89.9083 103° East 453 521 35,000  Level Houston Center
Sat 08:54:04 PM 29.1061 -89.7700 104° East 452 520 35,000  Level Houston Center
Sat 08:55:05 PM 29.0767 -89.6317 104° East 451 519 35,000  Level Houston Center
Sat 08:56:07 PM 29.0464 -89.4922 104° East 451 519 35,000  Level Houston Center
Sat 08:57:08 PM 29.0169 -89.3542 104° East 451 519 35,000  Level Houston Center
Sat 08:58:10 PM 28.9797 -89.1861 104° East 454 522 35,000  Level Houston Center
Sat 08:59:11 PM 28.9489 -89.0467 104° East 455 524 35,000  Level Houston Center
Sat 09:00:12 PM 28.9181 -88.9069 104° East 455 524 35,000  Level Houston Center
Sat 09:01:14 PM 28.8872 -88.7669 104° East 456 525 35,000  Level Houston Center
Sat 09:02:15 PM 28.8564 -88.6267 104° East 458 527 35,000  Level Houston Center
Sat 09:03:16 PM 28.8244 -88.4872 105° East 457 526 35,000  Level Houston Center
Sat 09:04:17 PM 28.7928 -88.3469 104° East 458 527 35,000  Level Houston Center
Sat 09:05:19 PM 28.7608 -88.2058 104° East 460 529 35,000  Level Houston Center
Sat 09:06:20 PM 28.7283 -88.0589 104° East 460 529 35,000  Level Houston Center
Sat 09:07:21 PM 28.6956 -87.9169 105° East 464 534 35,000  Level Houston Center
Sat 09:08:22 PM 28.6622 -87.7758 105° East 463 533 35,000  Level Houston Center
Sat 09:09:23 PM 28.6250 -87.6056 104° East 463 533 35,000  Level Houston Center
Sat 09:10:25 PM 28.6042 -87.4581 99° East 470 541 35,000  Level Houston Center
Sat 09:11:26 PM 28.5847 -87.3100 98° East 474 545 35,000  Level Houston Center
Sat 09:12:27 PM 28.5625 -87.1633 100° East 473 544 35,000  Level Houston Center
Sat 09:13:28 PM 28.5414 -87.0200 99° East 465 535 35,000  Level Houston Center
Sat 09:14:29 PM 28.5200 -86.8747 99° East 466 536 35,000  Level Houston Center
Sat 09:15:31 PM 28.4981 -86.7286 100° East 469 540 35,000  Level Houston Center
Sat 09:16:32 PM 28.4767 -86.5808 99° East 473 544 35,000  Level Houston Center
Sat 09:17:55 PM 28.4450 -86.3722 100° East 472 543 35,000 -84 Level Jacksonville Center
Sat 09:18:55 PM 28.4219 -86.2253 100° East 472 543 34,800 -756 Descending Jacksonville Center
Sat 09:19:54 PM 28.3986 -86.0758 100° East 472 543 33,500 -1,500 Descending Jacksonville Center
Sat 09:20:55 PM 28.3750 -85.9289 100° East 467 537 31,800 -1,736 Descending Jacksonville Center
Sat 09:21:55 PM 28.3531 -85.7889 100° East 468 539 30,000 -1,815 Descending Jacksonville Center
Sat 09:22:54 PM 28.3314 -85.6422 99° East 468 539 28,200 -1,533 Descending Jacksonville Center
Sat 09:24:59 PM 28.2781 -85.3206 101° East 474 545 25,300 -1,038 Descending Miami Center
Sat 09:25:59 PM 28.2575 -85.1778 99° East 469 540 25,000 -150 Descending Miami Center
Sat 09:26:59 PM 28.2303 -85.0322 102° East 469 540 25,000  Level Miami Center
Sat 09:27:59 PM 28.2092 -84.8919 100° East 469 540 25,000  Level Miami Center
Sat 09:28:59 PM 28.1900 -84.7494 99° East 463 533 25,000  Level Miami Center
Sat 09:29:59 PM 28.1603 -84.6039 103° East 463 533 25,000  Level Miami Center
Sat 09:30:59 PM 28.1406 -84.4661 99° East 455 524 25,000  Level Miami Center
Sat 09:31:59 PM 28.1164 -84.3328 102° East 455 524 25,000  Level Miami Center
Sat 09:32:59 PM 28.0925 -84.1903 101° East 455 524 25,000 -200 Level Miami Center
Sat 09:33:59 PM 28.0644 -84.0450 102° East 455 524 24,600 -750 Descending Miami Center
Sat 09:34:59 PM 28.0422 -83.9050 100° East 455 524 23,500 -1,800 Descending Miami Center
Sat 09:35:59 PM 28.0197 -83.7675 100° East 455 524 21,000 -2,400 Descending Miami Center
Sat 09:36:59 PM 27.9950 -83.6319 102° East 450 518 18,700 -2,250 Descending Miami Center
Sat 09:37:59 PM 27.9736 -83.5064 101° East 426 490 16,500 -2,350 Descending Miami Center
Sat 09:38:59 PM 27.9564 -83.3808 99° East 411 473 14,000 -2,361 Descending Miami Center
Sat 09:40:01 PM 27.9725 -83.2572 82° East 395 455 11,700 -1,884 Descending Miami Center
Sat 09:41:00 PM 27.9922 -83.1386 79° East 390 449 10,200 -1,200 Descending Miami Center
Sat 09:42:01 PM 28.0050 -83.0383 82° East 358 412 9,300 -1,200 Descending Miami Center
Sat 09:43:00 PM 28.0217 -82.9428 79° East 325 374 7,800 -1,462 Descending Miami Center
Sat 09:44:00 PM 28.0439 -82.8547 74° East 306 352 6,400 -1,131 Descending Miami Center
Sat 09:45:02 PM 28.0931 -82.7819 53° Northeast 284 327 5,500 -1,109 Descending Miami Center
Sat 09:45:59 PM 28.1356 -82.7089 57° Northeast 279 321 4,200 -814 Descending Miami Center
Sat 09:47:00 PM 28.1756 -82.6450 55° Northeast 268 308 3,900 -378 Descending Miami Center
Sat 09:48:22 PM 28.1833 -82.5667 84° East 185 213 3,300 -608 Descending Tampa TRACON
Sat 09:49:28 PM 28.1500 -82.5333 139° Southeast 157 181 2,400 -619 Descending Tampa TRACON
Sat 09:50:28 PM 28.1000 -82.5167 164° South 164 189 2,000 -524 Descending Tampa TRACON
Sat 09:51:34 PM 28.0500 -82.5333 196° South 160 184 1,300 -619 Descending Tampa TRACON
Sat 09:52:34 PM 28.0167 -82.5333 180° South 124 143 700 -600 Descending Tampa TRACON
Sat 09:54:00 PM 27.9755 -82.5332 180° South  Level Estimated
Sat 10:01:00 PM 27.9755 -82.5332 North  Level Estimated
Sat 10:02:00 PM 27.9755 -82.5332 North  Level Estimated

Login

Don't have an account? Register now (free) for customized features, flight alerts, and more!